sensor_id;sensor_type;location;lat;lon;timestamp;temperature;humidity
85097;SHT30;75436;53.502;10.030;2024-02-14T00:01:42;4.04;89.45
85097;SHT30;75436;53.502;10.030;2024-02-14T00:04:09;4.04;89.55
85097;SHT30;75436;53.502;10.030;2024-02-14T00:06:36;4.04;89.54
85097;SHT30;75436;53.502;10.030;2024-02-14T00:09:03;4.07;89.30
85097;SHT30;75436;53.502;10.030;2024-02-14T00:11:28;4.11;89.02
85097;SHT30;75436;53.502;10.030;2024-02-14T00:13:54;4.11;88.79
85097;SHT30;75436;53.502;10.030;2024-02-14T00:16:21;4.14;88.60
85097;SHT30;75436;53.502;10.030;2024-02-14T00:18:48;4.17;88.46
85097;SHT30;75436;53.502;10.030;2024-02-14T00:21:14;4.18;88.32
85097;SHT30;75436;53.502;10.030;2024-02-14T00:23:40;4.18;88.24
85097;SHT30;75436;53.502;10.030;2024-02-14T00:26:07;4.16;88.26
85097;SHT30;75436;53.502;10.030;2024-02-14T00:28:32;4.16;88.31
85097;SHT30;75436;53.502;10.030;2024-02-14T00:30:58;4.21;88.20
85097;SHT30;75436;53.502;10.030;2024-02-14T00:33:24;4.21;88.08
85097;SHT30;75436;53.502;10.030;2024-02-14T00:35:50;4.21;87.82
85097;SHT30;75436;53.502;10.030;2024-02-14T00:38:16;4.24;87.65
85097;SHT30;75436;53.502;10.030;2024-02-14T00:40:43;4.36;87.54
85097;SHT30;75436;53.502;10.030;2024-02-14T00:43:08;4.28;87.29
85097;SHT30;75436;53.502;10.030;2024-02-14T00:45:34;4.30;87.79
85097;SHT30;75436;53.502;10.030;2024-02-14T00:48:01;4.34;87.81
85097;SHT30;75436;53.502;10.030;2024-02-14T00:50:29;4.30;88.04
85097;SHT30;75436;53.502;10.030;2024-02-14T00:52:55;4.40;87.78
85097;SHT30;75436;53.502;10.030;2024-02-14T00:55:22;4.37;87.60
85097;SHT30;75436;53.502;10.030;2024-02-14T00:57:47;4.41;87.62
85097;SHT30;75436;53.502;10.030;2024-02-14T01:00:14;4.44;87.20
85097;SHT30;75436;53.502;10.030;2024-02-14T01:02:42;4.49;87.11
85097;SHT30;75436;53.502;10.030;2024-02-14T01:05:08;4.48;86.99
85097;SHT30;75436;53.502;10.030;2024-02-14T01:07:35;4.54;86.70
85097;SHT30;75436;53.502;10.030;2024-02-14T01:10:02;4.67;86.50
85097;SHT30;75436;53.502;10.030;2024-02-14T01:12:29;4.65;86.19
85097;SHT30;75436;53.502;10.030;2024-02-14T01:14:55;4.69;86.23
85097;SHT30;75436;53.502;10.030;2024-02-14T01:17:22;4.69;86.27
85097;SHT30;75436;53.502;10.030;2024-02-14T01:19:47;4.71;86.45
85097;SHT30;75436;53.502;10.030;2024-02-14T01:22:14;4.67;86.58
85097;SHT30;75436;53.502;10.030;2024-02-14T01:24:44;4.69;86.92
85097;SHT30;75436;53.502;10.030;2024-02-14T01:27:10;4.68;87.29
85097;SHT30;75436;53.502;10.030;2024-02-14T01:29:35;4.62;87.66
85097;SHT30;75436;53.502;10.030;2024-02-14T01:32:03;4.67;87.78
85097;SHT30;75436;53.502;10.030;2024-02-14T01:34:30;4.62;88.18
85097;SHT30;75436;53.502;10.030;2024-02-14T01:36:57;4.61;88.64
85097;SHT30;75436;53.502;10.030;2024-02-14T01:39:23;4.59;88.61
85097;SHT30;75436;53.502;10.030;2024-02-14T01:41:50;4.58;89.27
85097;SHT30;75436;53.502;10.030;2024-02-14T01:44:18;4.54;89.55
85097;SHT30;75436;53.502;10.030;2024-02-14T01:46:44;4.54;90.02
85097;SHT30;75436;53.502;10.030;2024-02-14T01:49:15;4.45;90.35
85097;SHT30;75436;53.502;10.030;2024-02-14T01:51:43;4.48;90.53
85097;SHT30;75436;53.502;10.030;2024-02-14T01:54:12;4.44;90.82
85097;SHT30;75436;53.502;10.030;2024-02-14T01:56:40;4.42;91.04
85097;SHT30;75436;53.502;10.030;2024-02-14T01:59:06;4.47;91.17
85097;SHT30;75436;53.502;10.030;2024-02-14T02:01:32;4.41;91.32
85097;SHT30;75436;53.502;10.030;2024-02-14T02:03:58;4.48;91.39
85097;SHT30;75436;53.502;10.030;2024-02-14T02:06:25;4.45;91.69
85097;SHT30;75436;53.502;10.030;2024-02-14T02:08:54;4.37;92.08
85097;SHT30;75436;53.502;10.030;2024-02-14T02:11:20;4.36;92.19
85097;SHT30;75436;53.502;10.030;2024-02-14T02:13:47;4.34;92.25
85097;SHT30;75436;53.502;10.030;2024-02-14T02:16:13;4.38;92.41
85097;SHT30;75436;53.502;10.030;2024-02-14T02:18:40;4.33;92.72
85097;SHT30;75436;53.502;10.030;2024-02-14T02:21:06;4.40;92.91
85097;SHT30;75436;53.502;10.030;2024-02-14T02:23:34;4.36;92.96
85097;SHT30;75436;53.502;10.030;2024-02-14T02:26:01;4.34;93.23
85097;SHT30;75436;53.502;10.030;2024-02-14T02:28:28;4.38;93.16
85097;SHT30;75436;53.502;10.030;2024-02-14T02:30:53;4.38;93.35
85097;SHT30;75436;53.502;10.030;2024-02-14T02:33:21;4.37;93.36
85097;SHT30;75436;53.502;10.030;2024-02-14T02:35:48;4.37;93.60
85097;SHT30;75436;53.502;10.030;2024-02-14T02:38:16;4.41;93.55
85097;SHT30;75436;53.502;10.030;2024-02-14T02:40:44;4.41;93.66
85097;SHT30;75436;53.502;10.030;2024-02-14T02:43:09;4.41;93.68
85097;SHT30;75436;53.502;10.030;2024-02-14T02:45:36;4.45;93.78
85097;SHT30;75436;53.502;10.030;2024-02-14T02:48:02;4.40;93.72
85097;SHT30;75436;53.502;10.030;2024-02-14T02:50:28;4.40;94.02
85097;SHT30;75436;53.502;10.030;2024-02-14T02:52:54;4.40;94.05
85097;SHT30;75436;53.502;10.030;2024-02-14T02:55:20;4.38;94.21
85097;SHT30;75436;53.502;10.030;2024-02-14T02:57:48;4.42;94.24
85097;SHT30;75436;53.502;10.030;2024-02-14T03:00:14;4.45;94.22
85097;SHT30;75436;53.502;10.030;2024-02-14T03:02:41;4.47;94.12
85097;SHT30;75436;53.502;10.030;2024-02-14T03:05:10;4.40;94.18
85097;SHT30;75436;53.502;10.030;2024-02-14T03:07:44;4.41;94.41
85097;SHT30;75436;53.502;10.030;2024-02-14T03:10:11;4.42;94.47
85097;SHT30;75436;53.502;10.030;2024-02-14T03:12:39;4.42;94.52
85097;SHT30;75436;53.502;10.030;2024-02-14T03:15:05;4.40;94.51
85097;SHT30;75436;53.502;10.030;2024-02-14T03:17:31;4.41;94.61
85097;SHT30;75436;53.502;10.030;2024-02-14T03:19:57;4.40;94.62
85097;SHT30;75436;53.502;10.030;2024-02-14T03:22:22;4.40;94.65
85097;SHT30;75436;53.502;10.030;2024-02-14T03:24:49;4.42;94.69
85097;SHT30;75436;53.502;10.030;2024-02-14T03:27:14;4.42;94.73
85097;SHT30;75436;53.502;10.030;2024-02-14T03:29:39;4.40;94.70
85097;SHT30;75436;53.502;10.030;2024-02-14T03:32:07;4.38;94.74
85097;SHT30;75436;53.502;10.030;2024-02-14T03:34:33;4.40;94.81
85097;SHT30;75436;53.502;10.030;2024-02-14T03:37:01;4.41;94.77
85097;SHT30;75436;53.502;10.030;2024-02-14T03:39:32;4.41;94.79
85097;SHT30;75436;53.502;10.030;2024-02-14T03:41:58;4.40;94.78
85097;SHT30;75436;53.502;10.030;2024-02-14T03:44:26;4.38;94.83
85097;SHT30;75436;53.502;10.030;2024-02-14T03:46:53;4.41;94.81
85097;SHT30;75436;53.502;10.030;2024-02-14T03:49:19;4.40;94.91
85097;SHT30;75436;53.502;10.030;2024-02-14T03:51:45;4.38;94.94
85097;SHT30;75436;53.502;10.030;2024-02-14T03:54:11;4.40;94.93
85097;SHT30;75436;53.502;10.030;2024-02-14T03:56:38;4.38;94.89
85097;SHT30;75436;53.502;10.030;2024-02-14T03:59:04;4.40;94.89
85097;SHT30;75436;53.502;10.030;2024-02-14T04:01:31;4.38;94.99
85097;SHT30;75436;53.502;10.030;2024-02-14T04:03:56;4.38;94.94
85097;SHT30;75436;53.502;10.030;2024-02-14T04:06:21;4.40;94.88
85097;SHT30;75436;53.502;10.030;2024-02-14T04:08:48;4.41;94.91
85097;SHT30;75436;53.502;10.030;2024-02-14T04:11:14;4.40;94.91
85097;SHT30;75436;53.502;10.030;2024-02-14T04:13:41;4.40;95.00
85097;SHT30;75436;53.502;10.030;2024-02-14T04:16:08;4.45;95.12
85097;SHT30;75436;53.502;10.030;2024-02-14T04:18:33;4.45;95.03
85097;SHT30;75436;53.502;10.030;2024-02-14T04:21:00;4.49;95.06
85097;SHT30;75436;53.502;10.030;2024-02-14T04:23:26;4.48;95.11
85097;SHT30;75436;53.502;10.030;2024-02-14T04:25:53;4.49;95.09
85097;SHT30;75436;53.502;10.030;2024-02-14T04:28:18;4.57;95.03
85097;SHT30;75436;53.502;10.030;2024-02-14T04:30:43;4.52;95.02
85097;SHT30;75436;53.502;10.030;2024-02-14T04:33:09;4.52;95.11
85097;SHT30;75436;53.502;10.030;2024-02-14T04:35:35;4.49;95.16
85097;SHT30;75436;53.502;10.030;2024-02-14T04:38:01;4.52;95.27
85097;SHT30;75436;53.502;10.030;2024-02-14T04:40:27;4.55;95.25
85097;SHT30;75436;53.502;10.030;2024-02-14T04:42:52;4.55;95.31
85097;SHT30;75436;53.502;10.030;2024-02-14T04:45:18;4.59;95.35
85097;SHT30;75436;53.502;10.030;2024-02-14T04:47:43;4.61;95.37
85097;SHT30;75436;53.502;10.030;2024-02-14T04:50:10;4.61;95.47
85097;SHT30;75436;53.502;10.030;2024-02-14T04:52:36;4.65;95.45
85097;SHT30;75436;53.502;10.030;2024-02-14T04:55:03;4.62;95.50
85097;SHT30;75436;53.502;10.030;2024-02-14T04:57:32;4.67;95.53
85097;SHT30;75436;53.502;10.030;2024-02-14T05:00:00;4.69;95.52
85097;SHT30;75436;53.502;10.030;2024-02-14T05:02:29;4.71;95.54
85097;SHT30;75436;53.502;10.030;2024-02-14T05:04:55;4.76;95.60
85097;SHT30;75436;53.502;10.030;2024-02-14T05:07:22;4.78;95.59
85097;SHT30;75436;53.502;10.030;2024-02-14T05:09:49;4.76;95.55
85097;SHT30;75436;53.502;10.030;2024-02-14T05:12:18;4.75;95.56
85097;SHT30;75436;53.502;10.030;2024-02-14T05:14:43;4.75;95.61
85097;SHT30;75436;53.502;10.030;2024-02-14T05:17:08;4.82;95.56
85097;SHT30;75436;53.502;10.030;2024-02-14T05:19:35;4.86;95.62
85097;SHT30;75436;53.502;10.030;2024-02-14T05:22:00;4.86;95.59
85097;SHT30;75436;53.502;10.030;2024-02-14T05:24:26;4.86;95.55
85097;SHT30;75436;53.502;10.030;2024-02-14T05:26:55;4.95;95.57
85097;SHT30;75436;53.502;10.030;2024-02-14T05:29:20;4.89;95.54
85097;SHT30;75436;53.502;10.030;2024-02-14T05:31:50;4.90;95.67
85097;SHT30;75436;53.502;10.030;2024-02-14T05:34:17;4.90;95.75
85097;SHT30;75436;53.502;10.030;2024-02-14T05:36:43;4.95;95.80
85097;SHT30;75436;53.502;10.030;2024-02-14T05:39:12;5.03;95.70
85097;SHT30;75436;53.502;10.030;2024-02-14T05:41:39;4.99;95.62
85097;SHT30;75436;53.502;10.030;2024-02-14T05:44:05;4.99;95.76
85097;SHT30;75436;53.502;10.030;2024-02-14T05:46:30;5.00;95.78
85097;SHT30;75436;53.502;10.030;2024-02-14T05:48:56;5.00;95.83
85097;SHT30;75436;53.502;10.030;2024-02-14T05:51:23;5.01;95.89
85097;SHT30;75436;53.502;10.030;2024-02-14T05:53:49;5.06;95.89
85097;SHT30;75436;53.502;10.030;2024-02-14T05:56:15;5.05;95.89
85097;SHT30;75436;53.502;10.030;2024-02-14T05:58:40;5.09;95.91
85097;SHT30;75436;53.502;10.030;2024-02-14T06:01:06;5.15;95.92
85097;SHT30;75436;53.502;10.030;2024-02-14T06:03:31;5.10;95.85
85097;SHT30;75436;53.502;10.030;2024-02-14T06:05:57;5.12;95.88
85097;SHT30;75436;53.502;10.030;2024-02-14T06:08:27;5.13;95.91
85097;SHT30;75436;53.502;10.030;2024-02-14T06:10:52;5.12;95.94
85097;SHT30;75436;53.502;10.030;2024-02-14T06:13:18;5.15;95.98
85097;SHT30;75436;53.502;10.030;2024-02-14T06:15:44;5.15;96.00
85097;SHT30;75436;53.502;10.030;2024-02-14T06:18:12;5.20;95.98
85097;SHT30;75436;53.502;10.030;2024-02-14T06:20:38;5.19;95.91
85097;SHT30;75436;53.502;10.030;2024-02-14T06:23:07;5.17;96.00
85097;SHT30;75436;53.502;10.030;2024-02-14T06:25:33;5.15;96.07
85097;SHT30;75436;53.502;10.030;2024-02-14T06:27:59;5.20;96.08
85097;SHT30;75436;53.502;10.030;2024-02-14T06:30:25;5.17;96.04
85097;SHT30;75436;53.502;10.030;2024-02-14T06:32:51;5.20;96.04
85097;SHT30;75436;53.502;10.030;2024-02-14T06:35:18;5.20;96.06
85097;SHT30;75436;53.502;10.030;2024-02-14T06:37:46;5.20;96.09
85097;SHT30;75436;53.502;10.030;2024-02-14T06:40:12;5.24;96.17
85097;SHT30;75436;53.502;10.030;2024-02-14T06:42:38;5.22;96.17
85097;SHT30;75436;53.502;10.030;2024-02-14T06:45:04;5.28;96.21
85097;SHT30;75436;53.502;10.030;2024-02-14T06:47:31;5.28;96.20
85097;SHT30;75436;53.502;10.030;2024-02-14T06:49:56;5.31;96.20
85097;SHT30;75436;53.502;10.030;2024-02-14T06:52:22;5.31;96.20
85097;SHT30;75436;53.502;10.030;2024-02-14T06:54:47;5.31;96.18
85097;SHT30;75436;53.502;10.030;2024-02-14T06:57:14;5.36;96.17
85097;SHT30;75436;53.502;10.030;2024-02-14T06:59:41;5.31;96.19
85097;SHT30;75436;53.502;10.030;2024-02-14T07:02:09;5.34;96.24
85097;SHT30;75436;53.502;10.030;2024-02-14T07:04:37;5.37;96.29
85097;SHT30;75436;53.502;10.030;2024-02-14T07:07:03;5.40;96.27
85097;SHT30;75436;53.502;10.030;2024-02-14T07:09:28;5.40;96.26
85097;SHT30;75436;53.502;10.030;2024-02-14T07:11:54;5.43;96.27
85097;SHT30;75436;53.502;10.030;2024-02-14T07:14:21;5.41;96.27
85097;SHT30;75436;53.502;10.030;2024-02-14T07:16:49;5.46;96.24
85097;SHT30;75436;53.502;10.030;2024-02-14T07:19:14;5.46;96.25
85097;SHT30;75436;53.502;10.030;2024-02-14T07:21:40;5.54;96.24
85097;SHT30;75436;53.502;10.030;2024-02-14T07:24:06;5.54;96.24
85097;SHT30;75436;53.502;10.030;2024-02-14T07:26:32;5.54;96.20
85097;SHT30;75436;53.502;10.030;2024-02-14T07:28:57;5.55;96.19
85097;SHT30;75436;53.502;10.030;2024-02-14T07:31:29;5.57;96.19
85097;SHT30;75436;53.502;10.030;2024-02-14T07:33:56;5.59;96.24
85097;SHT30;75436;53.502;10.030;2024-02-14T07:36:21;5.59;96.27
85097;SHT30;75436;53.502;10.030;2024-02-14T07:38:48;5.62;96.27
85097;SHT30;75436;53.502;10.030;2024-02-14T07:41:15;5.62;96.30
85097;SHT30;75436;53.502;10.030;2024-02-14T07:43:41;5.68;96.32
85097;SHT30;75436;53.502;10.030;2024-02-14T07:46:07;5.67;96.29
85097;SHT30;75436;53.502;10.030;2024-02-14T07:48:35;5.67;96.28
85097;SHT30;75436;53.502;10.030;2024-02-14T07:51:00;5.71;96.35
85097;SHT30;75436;53.502;10.030;2024-02-14T07:53:26;5.72;96.33
85097;SHT30;75436;53.502;10.030;2024-02-14T07:55:51;5.74;96.28
85097;SHT30;75436;53.502;10.030;2024-02-14T07:58:18;5.69;96.27
85097;SHT30;75436;53.502;10.030;2024-02-14T08:00:43;5.77;96.33
85097;SHT30;75436;53.502;10.030;2024-02-14T08:03:10;5.82;96.30
85097;SHT30;75436;53.502;10.030;2024-02-14T08:05:36;5.88;96.31
85097;SHT30;75436;53.502;10.030;2024-02-14T08:08:03;5.92;96.27
85097;SHT30;75436;53.502;10.030;2024-02-14T08:10:28;5.98;96.24
85097;SHT30;75436;53.502;10.030;2024-02-14T08:12:56;5.99;96.18
85097;SHT30;75436;53.502;10.030;2024-02-14T08:15:22;5.99;96.15
85097;SHT30;75436;53.502;10.030;2024-02-14T08:17:51;6.07;96.23
85097;SHT30;75436;53.502;10.030;2024-02-14T08:20:20;6.06;96.22
85097;SHT30;75436;53.502;10.030;2024-02-14T08:22:45;6.15;96.27
85097;SHT30;75436;53.502;10.030;2024-02-14T08:25:12;6.22;96.17
85097;SHT30;75436;53.502;10.030;2024-02-14T08:27:37;6.29;96.18
85097;SHT30;75436;53.502;10.030;2024-02-14T08:30:04;6.33;96.13
85097;SHT30;75436;53.502;10.030;2024-02-14T08:32:33;6.34;96.15
85097;SHT30;75436;53.502;10.030;2024-02-14T08:34:59;6.56;96.22
85097;SHT30;75436;53.502;10.030;2024-02-14T08:37:24;6.50;95.97
85097;SHT30;75436;53.502;10.030;2024-02-14T08:39:50;6.48;95.95
85097;SHT30;75436;53.502;10.030;2024-02-14T08:42:16;6.50;96.03
85097;SHT30;75436;53.502;10.030;2024-02-14T08:44:47;6.53;96.05
85097;SHT30;75436;53.502;10.030;2024-02-14T08:47:12;6.58;96.07
85097;SHT30;75436;53.502;10.030;2024-02-14T08:49:41;6.68;95.93
85097;SHT30;75436;53.502;10.030;2024-02-14T08:52:07;6.63;95.80
85097;SHT30;75436;53.502;10.030;2024-02-14T08:54:32;6.68;95.87
85097;SHT30;75436;53.502;10.030;2024-02-14T08:56:59;6.70;95.95
85097;SHT30;75436;53.502;10.030;2024-02-14T08:59:24;6.83;95.96
85097;SHT30;75436;53.502;10.030;2024-02-14T09:01:49;6.80;95.95
85097;SHT30;75436;53.502;10.030;2024-02-14T09:04:15;6.88;96.03
85097;SHT30;75436;53.502;10.030;2024-02-14T09:06:46;6.94;96.06
85097;SHT30;75436;53.502;10.030;2024-02-14T09:09:11;6.99;96.02
85097;SHT30;75436;53.502;10.030;2024-02-14T09:11:41;6.99;96.00
85097;SHT30;75436;53.502;10.030;2024-02-14T09:14:07;7.08;95.95
85097;SHT30;75436;53.502;10.030;2024-02-14T09:16:33;7.12;95.95
85097;SHT30;75436;53.502;10.030;2024-02-14T09:19:05;7.22;96.00
85097;SHT30;75436;53.502;10.030;2024-02-14T09:21:33;7.25;95.90
85097;SHT30;75436;53.502;10.030;2024-02-14T09:24:02;7.29;95.96
85097;SHT30;75436;53.502;10.030;2024-02-14T09:26:29;7.37;95.95
85097;SHT30;75436;53.502;10.030;2024-02-14T09:28:58;7.49;95.90
85097;SHT30;75436;53.502;10.030;2024-02-14T09:31:23;7.52;95.85
85097;SHT30;75436;53.502;10.030;2024-02-14T09:33:51;7.56;95.84
85097;SHT30;75436;53.502;10.030;2024-02-14T09:36:19;7.63;95.86
85097;SHT30;75436;53.502;10.030;2024-02-14T09:38:46;7.74;95.77
85097;SHT30;75436;53.502;10.030;2024-02-14T09:41:25;7.80;95.76
85097;SHT30;75436;53.502;10.030;2024-02-14T09:43:52;7.88;95.72
85097;SHT30;75436;53.502;10.030;2024-02-14T09:46:17;8.05;95.73
85097;SHT30;75436;53.502;10.030;2024-02-14T09:48:46;8.08;95.56
85097;SHT30;75436;53.502;10.030;2024-02-14T09:51:12;8.16;95.50
85097;SHT30;75436;53.502;10.030;2024-02-14T09:53:40;8.22;95.42
85097;SHT30;75436;53.502;10.030;2024-02-14T09:56:05;8.21;95.37
85097;SHT30;75436;53.502;10.030;2024-02-14T09:58:32;8.24;95.39
85097;SHT30;75436;53.502;10.030;2024-02-14T10:00:58;8.26;95.46
85097;SHT30;75436;53.502;10.030;2024-02-14T10:03:25;8.35;95.50
85097;SHT30;75436;53.502;10.030;2024-02-14T10:05:52;8.45;95.62
85097;SHT30;75436;53.502;10.030;2024-02-14T10:08:18;8.49;95.53
85097;SHT30;75436;53.502;10.030;2024-02-14T10:10:47;8.57;95.51
85097;SHT30;75436;53.502;10.030;2024-02-14T10:13:12;8.67;95.49
85097;SHT30;75436;53.502;10.030;2024-02-14T10:15:38;8.77;95.50
85097;SHT30;75436;53.502;10.030;2024-02-14T10:18:05;8.84;95.29
85097;SHT30;75436;53.502;10.030;2024-02-14T10:20:30;8.94;95.37
85097;SHT30;75436;53.502;10.030;2024-02-14T10:23:07;9.11;95.41
85097;SHT30;75436;53.502;10.030;2024-02-14T10:25:34;9.14;94.95
85097;SHT30;75436;53.502;10.030;2024-02-14T10:28:05;9.18;94.93
85097;SHT30;75436;53.502;10.030;2024-02-14T10:30:34;9.35;94.59
85097;SHT30;75436;53.502;10.030;2024-02-14T10:33:02;9.38;94.62
85097;SHT30;75436;53.502;10.030;2024-02-14T10:35:30;9.39;94.66
85097;SHT30;75436;53.502;10.030;2024-02-14T10:37:58;9.39;94.61
85097;SHT30;75436;53.502;10.030;2024-02-14T10:40:28;9.41;94.48
85097;SHT30;75436;53.502;10.030;2024-02-14T10:43:02;9.53;94.40
85097;SHT30;75436;53.502;10.030;2024-02-14T10:45:29;9.56;93.94
85097;SHT30;75436;53.502;10.030;2024-02-14T10:47:56;9.52;94.11
85097;SHT30;75436;53.502;10.030;2024-02-14T10:50:27;9.58;94.28
85097;SHT30;75436;53.502;10.030;2024-02-14T10:52:57;9.63;94.39
85097;SHT30;75436;53.502;10.030;2024-02-14T10:55:24;9.66;94.15
85097;SHT30;75436;53.502;10.030;2024-02-14T10:57:53;9.65;94.35
85097;SHT30;75436;53.502;10.030;2024-02-14T11:00:20;9.62;94.60
85097;SHT30;75436;53.502;10.030;2024-02-14T11:02:47;9.68;94.51
85097;SHT30;75436;53.502;10.030;2024-02-14T11:05:14;9.69;94.34
85097;SHT30;75436;53.502;10.030;2024-02-14T11:07:47;9.69;94.48
85097;SHT30;75436;53.502;10.030;2024-02-14T11:10:15;9.80;94.43
85097;SHT30;75436;53.502;10.030;2024-02-14T11:12:41;9.80;94.24
85097;SHT30;75436;53.502;10.030;2024-02-14T11:15:12;9.79;94.42
85097;SHT30;75436;53.502;10.030;2024-02-14T11:17:39;9.78;94.62
85097;SHT30;75436;53.502;10.030;2024-02-14T11:20:35;9.86;94.55
85097;SHT30;75436;53.502;10.030;2024-02-14T11:23:06;9.93;94.36
85097;SHT30;75436;53.502;10.030;2024-02-14T11:25:34;9.99;94.35
85097;SHT30;75436;53.502;10.030;2024-02-14T11:28:16;10.03;94.23
85097;SHT30;75436;53.502;10.030;2024-02-14T11:30:42;10.06;94.30
85097;SHT30;75436;53.502;10.030;2024-02-14T11:33:17;10.10;94.14
85097;SHT30;75436;53.502;10.030;2024-02-14T11:35:48;10.13;94.39
85097;SHT30;75436;53.502;10.030;2024-02-14T11:38:18;10.13;94.43
85097;SHT30;75436;53.502;10.030;2024-02-14T11:40:44;10.09;94.60
85097;SHT30;75436;53.502;10.030;2024-02-14T11:43:15;10.16;94.64
85097;SHT30;75436;53.502;10.030;2024-02-14T11:45:44;10.16;94.57
85097;SHT30;75436;53.502;10.030;2024-02-14T11:48:12;10.18;94.61
85097;SHT30;75436;53.502;10.030;2024-02-14T11:50:43;10.23;94.71
85097;SHT30;75436;53.502;10.030;2024-02-14T11:53:15;10.21;94.62
85097;SHT30;75436;53.502;10.030;2024-02-14T11:55:47;10.29;94.29
85097;SHT30;75436;53.502;10.030;2024-02-14T11:58:16;10.34;94.23
85097;SHT30;75436;53.502;10.030;2024-02-14T12:00:44;10.37;94.40
85097;SHT30;75436;53.502;10.030;2024-02-14T12:03:17;10.45;93.87
85097;SHT30;75436;53.502;10.030;2024-02-14T12:05:45;10.44;94.13
85097;SHT30;75436;53.502;10.030;2024-02-14T12:08:26;10.48;94.26
85097;SHT30;75436;53.502;10.030;2024-02-14T12:10:53;10.51;94.31
85097;SHT30;75436;53.502;10.030;2024-02-14T12:13:22;10.47;94.34
85097;SHT30;75436;53.502;10.030;2024-02-14T12:15:50;10.54;94.27
85097;SHT30;75436;53.502;10.030;2024-02-14T12:18:20;10.52;94.44
85097;SHT30;75436;53.502;10.030;2024-02-14T12:20:46;10.55;94.35
85097;SHT30;75436;53.502;10.030;2024-02-14T12:23:17;10.55;94.27
85097;SHT30;75436;53.502;10.030;2024-02-14T12:25:43;10.58;94.35
85097;SHT30;75436;53.502;10.030;2024-02-14T12:28:19;10.57;94.44
85097;SHT30;75436;53.502;10.030;2024-02-14T12:30:49;10.67;94.67
85097;SHT30;75436;53.502;10.030;2024-02-14T12:33:17;10.69;94.06
85097;SHT30;75436;53.502;10.030;2024-02-14T12:35:48;10.67;94.28
85097;SHT30;75436;53.502;10.030;2024-02-14T12:38:16;10.69;94.05
85097;SHT30;75436;53.502;10.030;2024-02-14T12:40:42;10.75;94.19
85097;SHT30;75436;53.502;10.030;2024-02-14T12:43:14;10.71;94.11
85097;SHT30;75436;53.502;10.030;2024-02-14T12:45:43;10.71;94.18
85097;SHT30;75436;53.502;10.030;2024-02-14T12:48:11;10.71;94.43
85097;SHT30;75436;53.502;10.030;2024-02-14T12:50:41;10.73;94.49
85097;SHT30;75436;53.502;10.030;2024-02-14T12:53:14;10.75;94.11
85097;SHT30;75436;53.502;10.030;2024-02-14T12:55:40;10.73;94.29
85097;SHT30;75436;53.502;10.030;2024-02-14T12:58:07;10.69;94.44
85097;SHT30;75436;53.502;10.030;2024-02-14T13:00:32;10.67;94.60
85097;SHT30;75436;53.502;10.030;2024-02-14T13:02:58;10.78;94.44
85097;SHT30;75436;53.502;10.030;2024-02-14T13:05:24;10.78;94.36
85097;SHT30;75436;53.502;10.030;2024-02-14T13:07:52;10.78;94.34
85097;SHT30;75436;53.502;10.030;2024-02-14T13:10:17;10.81;94.23
85097;SHT30;75436;53.502;10.030;2024-02-14T13:12:45;10.83;93.76
85097;SHT30;75436;53.502;10.030;2024-02-14T13:15:11;10.82;93.74
85097;SHT30;75436;53.502;10.030;2024-02-14T13:17:37;10.85;93.94
85097;SHT30;75436;53.502;10.030;2024-02-14T13:20:03;10.85;93.60
85097;SHT30;75436;53.502;10.030;2024-02-14T13:22:30;10.89;93.64
85097;SHT30;75436;53.502;10.030;2024-02-14T13:24:56;10.91;93.71
85097;SHT30;75436;53.502;10.030;2024-02-14T13:27:22;10.88;93.62
85097;SHT30;75436;53.502;10.030;2024-02-14T13:29:51;10.91;93.57
85097;SHT30;75436;53.502;10.030;2024-02-14T13:32:19;10.91;93.68
85097;SHT30;75436;53.502;10.030;2024-02-14T13:34:45;10.91;93.60
85097;SHT30;75436;53.502;10.030;2024-02-14T13:37:10;10.99;93.37
85097;SHT30;75436;53.502;10.030;2024-02-14T13:39:36;10.91;93.39
85097;SHT30;75436;53.502;10.030;2024-02-14T13:42:02;11.06;93.27
85097;SHT30;75436;53.502;10.030;2024-02-14T13:44:27;11.09;92.91
85097;SHT30;75436;53.502;10.030;2024-02-14T13:46:53;11.06;93.04
85097;SHT30;75436;53.502;10.030;2024-02-14T13:49:20;11.10;92.79
85097;SHT30;75436;53.502;10.030;2024-02-14T13:51:51;11.19;92.41
85097;SHT30;75436;53.502;10.030;2024-02-14T13:54:21;11.20;92.62
85097;SHT30;75436;53.502;10.030;2024-02-14T13:56:48;11.15;92.84
85097;SHT30;75436;53.502;10.030;2024-02-14T13:59:14;11.10;93.10
85097;SHT30;75436;53.502;10.030;2024-02-14T14:01:40;11.12;93.07
85097;SHT30;75436;53.502;10.030;2024-02-14T14:04:07;11.12;92.94
85097;SHT30;75436;53.502;10.030;2024-02-14T14:06:33;11.08;93.04
85097;SHT30;75436;53.502;10.030;2024-02-14T14:09:00;11.15;92.89
85097;SHT30;75436;53.502;10.030;2024-02-14T14:11:26;11.23;92.60
85097;SHT30;75436;53.502;10.030;2024-02-14T14:13:51;11.19;92.67
85097;SHT30;75436;53.502;10.030;2024-02-14T14:16:17;11.09;93.00
85097;SHT30;75436;53.502;10.030;2024-02-14T14:18:43;11.09;93.11
85097;SHT30;75436;53.502;10.030;2024-02-14T14:21:08;11.08;93.12
85097;SHT30;75436;53.502;10.030;2024-02-14T14:23:36;11.06;93.31
85097;SHT30;75436;53.502;10.030;2024-02-14T14:26:02;11.10;93.29
85097;SHT30;75436;53.502;10.030;2024-02-14T14:28:27;11.10;93.37
85097;SHT30;75436;53.502;10.030;2024-02-14T14:30:56;11.12;93.19
85097;SHT30;75436;53.502;10.030;2024-02-14T14:33:22;11.00;93.45
85097;SHT30;75436;53.502;10.030;2024-02-14T14:35:48;10.95;93.76
85097;SHT30;75436;53.502;10.030;2024-02-14T14:38:19;10.92;93.76
85097;SHT30;75436;53.502;10.030;2024-02-14T14:40:45;10.92;93.95
85097;SHT30;75436;53.502;10.030;2024-02-14T14:43:15;10.96;93.57
85097;SHT30;75436;53.502;10.030;2024-02-14T14:45:51;10.93;93.90
85097;SHT30;75436;53.502;10.030;2024-02-14T14:48:19;11.06;93.56
85097;SHT30;75436;53.502;10.030;2024-02-14T14:50:45;10.95;93.69
85097;SHT30;75436;53.502;10.030;2024-02-14T14:53:12;10.93;93.82
85097;SHT30;75436;53.502;10.030;2024-02-14T14:55:57;10.93;93.73
85097;SHT30;75436;53.502;10.030;2024-02-14T14:58:25;11.00;93.61
85097;SHT30;75436;53.502;10.030;2024-02-14T15:00:56;10.99;93.44
85097;SHT30;75436;53.502;10.030;2024-02-14T15:03:26;10.93;93.66
85097;SHT30;75436;53.502;10.030;2024-02-14T15:05:52;10.89;93.69
85097;SHT30;75436;53.502;10.030;2024-02-14T15:08:19;10.92;93.53
85097;SHT30;75436;53.502;10.030;2024-02-14T15:10:51;10.93;93.52
85097;SHT30;75436;53.502;10.030;2024-02-14T15:13:19;11.03;93.43
85097;SHT30;75436;53.502;10.030;2024-02-14T15:15:44;11.02;93.11
85097;SHT30;75436;53.502;10.030;2024-02-14T15:18:10;10.98;92.99
85097;SHT30;75436;53.502;10.030;2024-02-14T15:20:35;11.05;92.86
85097;SHT30;75436;53.502;10.030;2024-02-14T15:23:04;10.99;92.97
85097;SHT30;75436;53.502;10.030;2024-02-14T15:25:29;10.98;93.09
85097;SHT30;75436;53.502;10.030;2024-02-14T15:27:55;10.91;93.17